Terminal Aerodrome Forecast
Issued by NWS

Home | Current Version | Previous Version | Text Only | Print | Product List | Glossary On
Versions: 1 2 3 4 5 6 7 8 9 10 11 12 13 14 15 16 17 18 19 20 21 22 23 24 25 26 27 28
976
FTUS45 KREV 221746
TAFTVL
TAF
KTVL 221746Z 2218/2318 19011G22KT 3/4SM -SN VV006
      TEMPO 2219/2223 19020G30KT 4SM -SHSN SCT005 OVC015
     FM231000 18007KT 3SM -SHSN BR SCT010 BKN020=

USA.gov is the U.S. government's official web portal to all federal, state and local government web resources and services.